Time;durP1;ratioP1;P1;durP2;ratioP2;P2;SDS_P1;SDS_P2;PMS_P1;PMS_P2;Temp;Humidity;BMP_temperature;BMP_pressure;BME280_temperature;BME280_humidity;BME280_pressure;Samples;Min_cycle;Max_cycle;Signal;HPM_P1;HPM_P2
2021/10/28 00:14:37;;;;;;;16.33;6.95;;;11.10;99.90;;;;;;4966902;29;20118;-78
2021/10/28 00:17:09;;;;;;;16.20;7.70;;;11.00;99.90;;;;;;4963845;28;20052;-78
2021/10/28 00:19:36;;;;;;;16.38;7.25;;;10.90;99.90;;;;;;4966177;28;20039;-77
2021/10/28 00:22:03;;;;;;;18.63;8.52;;;10.90;99.90;;;;;;4965633;28;20039;-78
2021/10/28 00:24:29;;;;;;;16.48;7.20;;;10.90;99.90;;;;;;4964677;28;20075;-78
2021/10/28 00:26:54;;;;;;;15.63;7.15;;;10.80;99.90;;;;;;4965963;28;20047;-77
2021/10/28 00:29:23;;;;;;;24.70;6.70;;;10.80;99.90;;;;;;4964778;28;20031;-77
2021/10/28 00:31:50;;;;;;;20.30;8.43;;;10.70;99.90;;;;;;4964678;28;20055;-78
2021/10/28 00:34:17;;;;;;;18.75;7.97;;;10.70;99.90;;;;;;4966202;28;20054;-76
2021/10/28 00:36:46;;;;;;;13.45;6.70;;;10.70;99.90;;;;;;4965995;28;20119;-78
2021/10/28 00:39:12;;;;;;;13.95;7.40;;;10.60;99.90;;;;;;4966159;28;20023;-77
2021/10/28 00:41:38;;;;;;;18.35;7.28;;;10.70;99.90;;;;;;4964869;28;20338;-78
2021/10/28 00:44:05;;;;;;;17.15;7.32;;;10.60;99.90;;;;;;4959296;28;20069;-78
2021/10/28 00:46:33;;;;;;;19.52;7.57;;;10.70;99.90;;;;;;4946253;28;20028;-77
2021/10/28 00:49:01;;;;;;;17.13;6.75;;;10.60;99.90;;;;;;4945666;29;20481;-76
2021/10/28 00:51:29;;;;;;;15.85;7.38;;;10.60;99.90;;;;;;4946452;29;20024;-77
2021/10/28 00:53:57;;;;;;;18.67;7.90;;;10.50;99.90;;;;;;4947061;29;20539;-78
2021/10/28 00:56:28;;;;;;;17.33;8.57;;;10.50;99.90;;;;;;4946209;29;20055;-77
2021/10/28 00:58:54;;;;;;;12.05;6.53;;;10.50;99.90;;;;;;4946014;29;20111;-77
2021/10/28 01:01:19;;;;;;;22.23;8.27;;;10.60;99.90;;;;;;4945603;29;20063;-77
2021/10/28 01:03:46;;;;;;;14.40;6.65;;;10.50;99.90;;;;;;4945560;29;20032;-78
2021/10/28 01:06:13;;;;;;;17.13;8.32;;;10.50;99.90;;;;;;4944929;29;20028;-78
2021/10/28 01:08:42;;;;;;;14.20;7.30;;;10.40;99.90;;;;;;4946689;29;20556;-77
2021/10/28 01:11:08;;;;;;;26.60;8.00;;;10.50;99.90;;;;;;4946562;29;20047;-76
2021/10/28 01:13:35;;;;;;;17.67;7.75;;;10.40;99.90;;;;;;4946338;29;20552;-78
2021/10/28 01:16:02;;;;;;;19.63;8.20;;;10.40;99.90;;;;;;4944528;29;20067;-77
2021/10/28 01:18:34;;;;;;;25.67;7.70;;;10.30;99.90;;;;;;4946376;29;20087;-77
2021/10/28 01:21:00;;;;;;;15.60;6.53;;;10.30;99.90;;;;;;4944432;29;20034;-77
2021/10/28 01:23:26;;;;;;;18.88;7.43;;;10.30;99.90;;;;;;4945347;29;20028;-77
2021/10/28 01:26:05;;;;;;;22.88;8.63;;;10.30;99.90;;;;;;4945399;29;20032;-77
2021/10/28 01:28:32;;;;;;;22.85;9.18;;;10.30;99.90;;;;;;4946165;29;20027;-76
2021/10/28 01:31:01;;;;;;;23.55;8.20;;;10.30;99.90;;;;;;4947127;29;20020;-76
2021/10/28 01:33:27;;;;;;;17.40;7.45;;;10.30;99.90;;;;;;4949546;29;20042;-76
2021/10/28 01:35:54;;;;;;;22.55;8.02;;;10.20;99.90;;;;;;4949374;29;20043;-76
2021/10/28 01:38:20;;;;;;;15.90;6.38;;;10.20;99.90;;;;;;4949629;29;20032;-77
2021/10/28 01:40:53;;;;;;;18.40;7.32;;;10.20;99.90;;;;;;4950044;29;20031;-77
2021/10/28 01:43:28;;;;;;;16.95;7.22;;;10.20;99.90;;;;;;4948846;29;20063;-77
2021/10/28 01:45:54;;;;;;;20.38;7.50;;;10.10;99.90;;;;;;4948688;29;20039;-76
2021/10/28 01:48:21;;;;;;;16.73;7.07;;;10.20;99.90;;;;;;4948098;29;20032;-77
2021/10/28 01:50:48;;;;;;;20.10;8.05;;;10.20;99.90;;;;;;4948801;29;20039;-77
2021/10/28 01:53:15;;;;;;;16.00;7.15;;;10.20;99.90;;;;;;4948484;29;20031;-77
2021/10/28 01:55:42;;;;;;;16.58;6.65;;;10.10;99.90;;;;;;4948897;29;20046;-77
2021/10/28 01:58:10;;;;;;;14.27;8.13;;;10.10;99.90;;;;;;4949924;29;20083;-76
2021/10/28 02:00:39;;;;;;;19.30;7.25;;;10.10;99.90;;;;;;4948498;29;20031;-76
2021/10/28 02:03:05;;;;;;;18.00;6.32;;;10.10;99.90;;;;;;4949203;29;20560;-76
2021/10/28 02:05:31;;;;;;;15.23;7.63;;;10.00;99.90;;;;;;4948064;29;20036;-77
2021/10/28 02:07:57;;;;;;;28.85;8.73;;;9.90;99.90;;;;;;4947575;29;20388;-76
2021/10/28 02:10:23;;;;;;;21.88;8.15;;;9.90;99.90;;;;;;4948489;29;20075;-76
2021/10/28 02:12:50;;;;;;;13.70;6.88;;;9.90;99.90;;;;;;4949596;29;20097;-76
2021/10/28 02:15:19;;;;;;;15.00;7.18;;;9.80;99.90;;;;;;4947218;29;20040;-76
2021/10/28 02:17:44;;;;;;;13.55;7.05;;;9.80;99.90;;;;;;4948392;29;20028;-77
2021/10/28 02:20:12;;;;;;;15.55;7.18;;;9.80;99.90;;;;;;4949940;29;20036;-77
2021/10/28 02:22:39;;;;;;;17.23;7.57;;;9.80;99.90;;;;;;4948879;29;20425;-75
2021/10/28 02:25:06;;;;;;;16.27;7.82;;;9.70;99.90;;;;;;4949402;29;20846;-76
2021/10/28 02:27:32;;;;;;;18.13;7.43;;;9.70;99.90;;;;;;4947749;29;20043;-76
2021/10/28 02:29:58;;;;;;;15.10;6.70;;;9.70;99.90;;;;;;4947402;29;20028;-76
2021/10/28 02:32:24;;;;;;;15.02;6.97;;;9.70;99.90;;;;;;4947913;29;20032;-76
2021/10/28 02:34:50;;;;;;;13.35;6.60;;;9.70;99.90;;;;;;4948690;29;20096;-76
2021/10/28 02:37:17;;;;;;;18.98;7.82;;;9.70;99.90;;;;;;4948513;29;20032;-77
2021/10/28 02:39:44;;;;;;;9.60;5.50;;;9.70;99.90;;;;;;4949213;29;20039;-77
2021/10/28 02:42:09;;;;;;;14.90;6.57;;;9.70;99.90;;;;;;4947005;29;20040;-75
2021/10/28 02:44:36;;;;;;;17.25;6.50;;;9.70;99.90;;;;;;4949149;29;20190;-75
2021/10/28 02:47:02;;;;;;;13.23;5.05;;;9.60;99.90;;;;;;4948556;29;20038;-75
2021/10/28 02:49:28;;;;;;;21.23;6.75;;;9.60;99.90;;;;;;4947470;29;20052;-75
2021/10/28 02:51:54;;;;;;;12.38;6.47;;;9.50;99.90;;;;;;4948158;29;20031;-74
2021/10/28 02:54:22;;;;;;;12.18;6.43;;;9.50;99.90;;;;;;4946714;29;20523;-74
2021/10/28 02:56:48;;;;;;;22.63;7.88;;;9.50;99.90;;;;;;4948175;29;20039;-75
2021/10/28 02:59:15;;;;;;;21.30;7.25;;;9.40;99.90;;;;;;4947738;29;20024;-75
2021/10/28 03:01:49;;;;;;;19.33;7.22;;;9.40;99.90;;;;;;4947612;29;20047;-76
2021/10/28 03:04:20;;;;;;;16.33;6.93;;;9.40;99.90;;;;;;4948216;29;20031;-77
2021/10/28 03:06:47;;;;;;;19.42;8.05;;;9.40;99.90;;;;;;4948470;29;20083;-75
2021/10/28 03:09:16;;;;;;;16.58;6.97;;;9.40;99.90;;;;;;4947871;29;20023;-75
2021/10/28 03:11:43;;;;;;;16.15;7.00;;;9.40;99.90;;;;;;4946727;29;20062;-76
2021/10/28 03:14:13;;;;;;;15.43;6.70;;;9.30;99.90;;;;;;4948013;29;20066;-74
2021/10/28 03:27:19;;;;;;;21.70;8.00;;;9.20;99.90;;;;;;4948283;29;20065;-76
2021/10/28 03:29:44;;;;;;;15.18;7.03;;;9.20;99.90;;;;;;4947715;29;20032;-75
2021/10/28 03:32:10;;;;;;;20.65;8.32;;;9.20;99.90;;;;;;4947605;29;20066;-74
2021/10/28 03:34:36;;;;;;;17.10;6.10;;;9.20;99.90;;;;;;4948090;29;20094;-76
2021/10/28 03:45:28;;;;;;;17.98;6.95;;;9.10;99.90;;;;;;4947466;29;20561;-74
2021/10/28 04:30:18;;;;;;;23.77;7.70;;;9.00;99.90;;;;;;4966503;29;20055;-74
2021/10/28 04:32:44;;;;;;;13.45;6.80;;;9.00;99.90;;;;;;4966301;28;20027;-75
2021/10/28 04:35:11;;;;;;;18.50;6.90;;;8.90;99.90;;;;;;4965785;28;20035;-73
2021/10/28 04:37:38;;;;;;;19.23;8.05;;;8.90;99.90;;;;;;4966126;28;20027;-74
2021/10/28 04:40:05;;;;;;;14.48;6.45;;;8.90;99.90;;;;;;4965572;28;20031;-75
2021/10/28 04:42:31;;;;;;;20.13;8.93;;;8.90;99.90;;;;;;4980683;28;20038;-74
2021/10/28 04:44:56;;;;;;;15.50;7.00;;;8.90;99.90;;;;;;4966204;29;20087;-74
2021/10/28 04:47:22;;;;;;;24.42;7.80;;;8.90;99.90;;;;;;4964451;28;20027;-75
2021/10/28 04:49:47;;;;;;;11.82;6.97;;;8.90;99.90;;;;;;4966275;28;20539;-76
2021/10/28 04:52:13;;;;;;;15.55;7.18;;;8.80;99.90;;;;;;4965872;28;20047;-76
2021/10/28 04:54:39;;;;;;;17.30;7.30;;;8.80;99.90;;;;;;4964613;29;20038;-76
2021/10/28 04:57:06;;;;;;;14.73;6.07;;;8.70;99.90;;;;;;4953668;28;20042;-76
2021/10/28 04:59:32;;;;;;;18.02;7.20;;;8.70;99.90;;;;;;4944935;29;20046;-74
2021/10/28 05:01:58;;;;;;;18.27;7.53;;;8.70;99.90;;;;;;4946653;29;20028;-75
2021/10/28 05:04:24;;;;;;;18.10;7.20;;;8.70;99.90;;;;;;4946002;29;20087;-74
2021/10/28 05:06:50;;;;;;;22.10;8.18;;;8.70;99.90;;;;;;4949791;29;20091;-77
2021/10/28 05:09:22;;;;;;;15.90;7.43;;;8.60;99.90;;;;;;4949794;29;20039;-75
2021/10/28 05:11:49;;;;;;;18.25;5.82;;;8.60;99.90;;;;;;4953088;29;20048;-75
2021/10/28 05:14:14;;;;;;;15.15;6.70;;;8.60;99.90;;;;;;4956156;28;20038;-75
2021/10/28 05:16:41;;;;;;;14.48;6.82;;;8.50;99.90;;;;;;4956643;28;20058;-73
2021/10/28 05:19:07;;;;;;;18.35;7.55;;;8.50;99.90;;;;;;4958325;29;20051;-75
2021/10/28 05:21:32;;;;;;;16.90;7.85;;;8.60;99.90;;;;;;4957682;29;20042;-76
2021/10/28 05:23:58;;;;;;;22.15;7.35;;;8.50;99.90;;;;;;4959085;29;20031;-74
2021/10/28 05:26:24;;;;;;;13.85;6.40;;;8.50;99.90;;;;;;4956473;28;20039;-75
2021/10/28 05:28:50;;;;;;;17.40;7.10;;;8.50;99.90;;;;;;4955793;28;20038;-76
2021/10/28 05:31:16;;;;;;;12.55;6.80;;;8.50;99.90;;;;;;4956866;28;20027;-76
2021/10/28 05:33:42;;;;;;;15.40;6.18;;;8.50;99.90;;;;;;4958912;29;20031;-76
2021/10/28 05:36:08;;;;;;;21.60;7.28;;;8.50;99.90;;;;;;4965513;28;20043;-75
2021/10/28 05:38:33;;;;;;;16.15;6.47;;;8.50;99.90;;;;;;4956621;29;20432;-74
2021/10/28 05:41:00;;;;;;;15.65;6.15;;;8.50;99.90;;;;;;4961626;28;20039;-77
2021/10/28 05:43:26;;;;;;;31.42;7.13;;;8.50;99.90;;;;;;4958718;29;20023;-75
2021/10/28 05:45:51;;;;;;;10.52;5.95;;;8.40;99.90;;;;;;4959339;28;20031;-75
2021/10/28 05:48:17;;;;;;;14.38;7.03;;;8.40;99.90;;;;;;4961609;29;20498;-74
2021/10/28 05:50:46;;;;;;;16.52;6.68;;;8.40;99.90;;;;;;4968492;28;20042;-74
2021/10/28 05:53:13;;;;;;;19.80;7.28;;;8.40;99.90;;;;;;4967440;28;20015;-75
2021/10/28 05:55:38;;;;;;;17.40;6.35;;;8.40;99.90;;;;;;4968761;28;20106;-75
2021/10/28 05:58:05;;;;;;;23.92;7.65;;;8.40;99.90;;;;;;4968795;28;20154;-75
2021/10/28 06:00:31;;;;;;;13.95;6.30;;;8.40;99.90;;;;;;4967133;29;20027;-74
2021/10/28 06:02:56;;;;;;;12.55;5.82;;;8.40;99.90;;;;;;4966136;28;20041;-75
2021/10/28 06:05:23;;;;;;;14.45;5.85;;;8.40;99.90;;;;;;4959906;29;20032;-75
2021/10/28 06:07:49;;;;;;;15.05;6.25;;;8.40;99.90;;;;;;4950239;29;20046;-74
2021/10/28 06:10:17;;;;;;;16.08;6.30;;;8.40;99.90;;;;;;4962000;28;20023;-74
2021/10/28 06:12:46;;;;;;;16.98;6.93;;;8.40;99.90;;;;;;4951049;28;20038;-75
2021/10/28 06:15:14;;;;;;;19.30;6.68;;;8.40;99.90;;;;;;4949131;29;20039;-75
2021/10/28 06:17:48;;;;;;;13.40;6.10;;;8.40;99.90;;;;;;4948881;29;20094;-74
2021/10/28 06:20:14;;;;;;;12.15;6.40;;;8.40;99.90;;;;;;4949075;29;20066;-75
2021/10/28 06:22:40;;;;;;;13.75;5.65;;;8.40;99.90;;;;;;4959750;29;20031;-75
2021/10/28 06:25:06;;;;;;;13.32;6.05;;;8.40;99.90;;;;;;4949208;29;20027;-74
2021/10/28 06:27:31;;;;;;;19.40;6.15;;;8.40;99.90;;;;;;4960389;29;20031;-74
2021/10/28 06:29:57;;;;;;;22.70;7.63;;;8.40;99.90;;;;;;4959552;29;20045;-74
2021/10/28 06:32:23;;;;;;;17.10;5.78;;;8.40;99.90;;;;;;4968461;28;20032;-75
2021/10/28 06:34:50;;;;;;;16.35;7.75;;;8.40;99.90;;;;;;4968134;28;20028;-76
2021/10/28 06:37:16;;;;;;;22.08;7.95;;;8.40;99.90;;;;;;4968102;28;20109;-74
2021/10/28 06:39:42;;;;;;;16.75;6.53;;;8.40;99.90;;;;;;4968122;28;20023;-76
2021/10/28 06:42:11;;;;;;;14.55;7.20;;;8.40;99.90;;;;;;4967685;28;20110;-74
2021/10/28 06:44:38;;;;;;;14.27;5.70;;;8.50;99.90;;;;;;4966421;29;20031;-74
2021/10/28 06:47:04;;;;;;;21.90;5.82;;;8.40;99.90;;;;;;4950706;28;20040;-75
2021/10/28 06:49:33;;;;;;;17.85;6.13;;;8.40;99.90;;;;;;4961379;28;20055;-75
2021/10/28 06:51:58;;;;;;;12.05;5.68;;;8.40;99.90;;;;;;4947864;29;20047;-74
2021/10/28 06:54:32;;;;;;;12.52;5.85;;;8.40;99.90;;;;;;4952758;29;20038;-74
2021/10/28 07:02:41;;;;;;;13.38;5.85;;;8.60;99.90;;;;;;4948891;29;20046;-74
2021/10/28 07:05:07;;;;;;;13.85;5.80;;;8.80;99.90;;;;;;4949031;29;20063;-75
2021/10/28 07:07:34;;;;;;;19.23;6.50;;;9.00;99.90;;;;;;4954112;29;20079;-74
2021/10/28 07:10:06;;;;;;;10.00;5.18;;;9.00;99.90;;;;;;4954169;28;20480;-74
2021/10/28 07:15:11;;;;;;;12.48;5.55;;;9.20;99.90;;;;;;4966713;28;20042;-74
2021/10/28 07:17:47;;;;;;;13.05;5.95;;;9.30;99.90;;;;;;4962299;28;20015;-75
2021/10/28 07:30:34;;;;;;;;;;;9.70;99.90;;;;;;4957159;29;20030;-74
2021/10/28 08:30:20;;;;;;;11.10;5.95;;;11.60;99.90;;;;;;4938413;29;20039;-75
2021/10/28 08:32:45;;;;;;;12.25;5.30;;;11.70;99.90;;;;;;4943687;29;20479;-75
2021/10/28 08:35:13;;;;;;;12.85;5.80;;;11.80;99.90;;;;;;4945502;29;20068;-74
2021/10/28 08:37:44;;;;;;;13.07;5.15;;;11.90;99.90;;;;;;4945974;29;20023;-75
2021/10/28 08:40:11;;;;;;;12.38;5.97;;;12.00;99.90;;;;;;4946486;29;20016;-77
2021/10/28 08:42:39;;;;;;;15.18;5.78;;;12.10;99.90;;;;;;4946152;29;20052;-77
2021/10/28 08:45:06;;;;;;;15.23;5.35;;;12.10;99.90;;;;;;4946585;29;20032;-74
2021/10/28 08:47:34;;;;;;;10.57;5.10;;;12.30;99.90;;;;;;4961352;29;20071;-77
2021/10/28 08:50:07;;;;;;;11.55;4.43;;;12.40;99.90;;;;;;4947143;29;20024;-77
2021/10/28 08:55:21;;;;;;;16.75;5.85;;;12.50;99.90;;;;;;4944373;29;20050;-77
2021/10/28 09:00:25;;;;;;;10.98;5.53;;;12.70;99.90;;;;;;4936289;29;20121;-76
2021/10/28 09:25:45;;;;;;;11.40;4.50;;;12.80;99.90;;;;;;4927364;29;20057;-74
2021/10/28 09:28:31;;;;;;;13.32;5.70;;;12.90;99.90;;;;;;4927842;29;20112;-75
2021/10/28 09:31:14;;;;;;;13.27;5.75;;;13.00;99.90;;;;;;4926767;29;20033;-75
2021/10/28 09:45:21;;;;;;;8.57;5.25;;;13.40;99.90;;;;;;4926694;29;20043;-75
2021/10/28 09:48:03;;;;;;;17.83;5.78;;;13.40;99.90;;;;;;4941804;29;20039;-75
2021/10/28 09:50:37;;;;;;;13.82;6.05;;;13.50;99.90;;;;;;4941476;29;20052;-75
2021/10/28 09:53:30;;;;;;;10.05;5.72;;;13.60;99.90;;;;;;4941658;29;20098;-77
2021/10/28 09:58:33;;;;;;;10.23;4.65;;;13.90;99.90;;;;;;4949475;29;20055;-76
2021/10/28 10:01:01;;;;;;;10.00;5.10;;;14.20;99.90;;;;;;4948134;29;20055;-75
2021/10/28 10:03:42;;;;;;;16.45;5.25;;;14.40;99.90;;;;;;4948823;29;20055;-76
2021/10/28 10:06:25;;;;;;;10.02;4.43;;;14.50;99.90;;;;;;4963485;29;20492;-75
2021/10/28 10:08:51;;;;;;;10.02;5.40;;;14.50;99.90;;;;;;4949361;29;20043;-74
2021/10/28 10:11:22;;;;;;;9.40;5.18;;;14.50;99.90;;;;;;4948999;29;20036;-76
2021/10/28 10:13:47;;;;;;;11.13;4.45;;;14.50;99.90;;;;;;4947677;29;20068;-75
2021/10/28 10:16:14;;;;;;;10.30;4.97;;;14.40;99.90;;;;;;4939172;29;20040;-74
2021/10/28 10:18:40;;;;;;;14.93;5.35;;;14.40;99.90;;;;;;4946792;29;20054;-74
2021/10/28 10:21:17;;;;;;;11.05;5.47;;;14.50;99.90;;;;;;4949292;29;20028;-74
2021/10/28 10:24:13;;;;;;;9.23;5.22;;;14.40;99.90;;;;;;4949274;29;20020;-73
2021/10/28 12:23:31;;;;;;;5.28;2.85;;;18.60;99.90;;;;;;4937157;29;20052;-73
2021/10/28 12:29:00;;;;;;;6.63;3.38;;;18.50;99.90;;;;;;4928961;29;20429;-73
2021/10/28 12:46:25;;;;;;;8.63;3.60;;;19.70;99.90;;;;;;4930176;29;20083;-77
2021/10/28 13:28:28;;;;;;;10.32;2.90;;;20.90;99.90;;;;;;4930912;29;20051;-75
2021/10/28 13:52:31;;;;;;;6.82;3.03;;;24.10;99.90;;;;;;4946255;29;20038;-73
2021/10/28 14:22:36;;;;;;;5.43;2.25;;;25.20;99.90;;;;;;4932715;29;20155;-74
2021/10/28 15:30:01;;;;;;;5.65;2.95;;;20.80;99.90;;;;;;4929562;29;20099;-76
2021/10/28 15:33:19;;;;;;;2.45;1.70;;;20.10;99.90;;;;;;4943866;29;20038;-75
2021/10/28 15:35:36;;;;;;;4.60;2.15;;;19.30;99.90;;;;;;4928553;29;20067;-75
2021/10/28 15:38:13;;;;;;;4.63;2.50;;;18.50;99.90;;;;;;4943848;29;20447;-76
2021/10/28 15:56:59;;;;;;;5.15;2.35;;;16.30;99.90;;;;;;4928369;29;19970;-76
2021/10/28 16:24:10;;;;;;;3.55;1.45;;;15.20;99.90;;;;;;4939627;29;20147;-75
2021/10/28 16:26:35;;;;;;;3.75;1.52;;;15.10;99.90;;;;;;4947164;29;20492;-75
2021/10/28 16:29:06;;;;;;;4.00;1.80;;;15.00;99.90;;;;;;4947154;29;20032;-75
2021/10/28 16:31:35;;;;;;;4.40;2.33;;;15.00;99.90;;;;;;4947190;29;20024;-76
2021/10/28 16:34:02;;;;;;;5.13;2.47;;;15.00;99.90;;;;;;4947068;29;20027;-77
2021/10/28 16:36:28;;;;;;;4.07;2.25;;;14.90;99.90;;;;;;4947041;29;20039;-76
2021/10/28 16:38:55;;;;;;;6.28;2.97;;;14.80;99.90;;;;;;4945459;29;20875;-77
2021/10/28 16:41:21;;;;;;;6.00;2.10;;;14.90;99.90;;;;;;4960747;29;20059;-77
2021/10/28 16:43:48;;;;;;;5.13;2.15;;;14.80;99.90;;;;;;4946012;29;20036;-78
2021/10/28 16:46:13;;;;;;;3.70;2.45;;;14.70;99.90;;;;;;4961880;29;20034;-76
2021/10/28 16:48:40;;;;;;;5.30;2.42;;;14.70;99.90;;;;;;4946834;29;20031;-76
2021/10/28 16:51:06;;;;;;;7.70;2.40;;;14.70;99.90;;;;;;4959459;29;20419;-75
2021/10/28 16:53:33;;;;;;;6.60;2.75;;;14.60;99.90;;;;;;4939765;29;20035;-78
2021/10/28 16:56:00;;;;;;;3.05;1.85;;;14.40;99.90;;;;;;4941623;29;20046;-78
2021/10/28 16:58:26;;;;;;;3.42;2.08;;;14.40;99.90;;;;;;4947834;29;20504;-77
2021/10/28 17:00:54;;;;;;;4.25;2.28;;;14.30;99.90;;;;;;4955021;28;20038;-77
2021/10/28 17:03:19;;;;;;;4.75;1.85;;;14.20;99.90;;;;;;4935860;29;20141;-77
2021/10/28 17:05:46;;;;;;;5.25;2.33;;;14.10;99.90;;;;;;4939546;29;20436;-77
2021/10/28 17:08:12;;;;;;;5.47;2.58;;;14.00;99.90;;;;;;4943836;29;20036;-77
2021/10/28 17:10:38;;;;;;;8.38;3.67;;;13.80;99.90;;;;;;4954448;29;20099;-77
2021/10/28 17:13:10;;;;;;;9.40;4.07;;;13.70;99.90;;;;;;4954512;29;20028;-76
2021/10/28 17:15:38;;;;;;;7.03;3.25;;;13.70;99.90;;;;;;4946770;29;20087;-79
2021/10/28 17:18:03;;;;;;;6.72;2.40;;;13.60;99.90;;;;;;4948242;29;20039;-78
2021/10/28 17:20:35;;;;;;;5.00;2.85;;;13.70;99.90;;;;;;4947279;29;20036;-77
2021/10/28 17:23:04;;;;;;;4.00;2.42;;;13.60;99.90;;;;;;4947563;29;20082;-77
2021/10/28 17:25:37;;;;;;;8.40;2.83;;;13.60;99.90;;;;;;4950129;29;20036;-74
2021/10/28 17:28:02;;;;;;;4.18;2.30;;;13.50;99.90;;;;;;4934055;29;20039;-76
2021/10/28 17:30:28;;;;;;;4.60;2.22;;;13.50;99.90;;;;;;4947800;29;20039;-76
2021/10/28 17:32:54;;;;;;;7.32;3.33;;;13.50;99.90;;;;;;4966886;28;20035;-76
2021/10/28 17:35:20;;;;;;;6.38;2.65;;;13.40;99.90;;;;;;4966666;29;20031;-75
2021/10/28 17:37:45;;;;;;;3.78;2.40;;;13.40;99.90;;;;;;4952441;29;20023;-75
2021/10/28 17:40:11;;;;;;;7.00;2.55;;;13.40;99.90;;;;;;4951281;29;20039;-75
2021/10/28 17:42:39;;;;;;;6.03;2.70;;;13.20;99.90;;;;;;4951455;29;20035;-77
2021/10/28 17:45:07;;;;;;;8.57;2.67;;;13.30;99.90;;;;;;4950441;29;20035;-77
2021/10/28 17:47:33;;;;;;;4.03;2.30;;;13.20;99.90;;;;;;4972607;28;20038;-76
2021/10/28 17:49:59;;;;;;;4.32;1.90;;;13.20;99.90;;;;;;4942553;29;20019;-75
2021/10/28 17:52:29;;;;;;;12.50;4.40;;;13.20;99.90;;;;;;4950079;29;20024;-77
2021/10/28 17:54:55;;;;;;;6.28;3.97;;;13.10;99.90;;;;;;4963285;29;20020;-77
2021/10/28 17:57:20;;;;;;;12.07;5.03;;;13.10;99.90;;;;;;4950765;29;20039;-78
2021/10/28 18:00:03;;;;;;;8.57;3.92;;;13.00;99.90;;;;;;4952043;29;20031;-77
2021/10/28 18:02:34;;;;;;;17.17;6.10;;;13.00;99.90;;;;;;4959550;28;20110;-79
2021/10/28 18:05:01;;;;;;;6.05;2.97;;;13.00;99.90;;;;;;4955381;29;20031;-78
2021/10/28 18:07:27;;;;;;;25.70;9.20;;;13.00;99.90;;;;;;4951262;29;20396;-77
2021/10/28 18:09:52;;;;;;;21.98;7.88;;;13.00;99.90;;;;;;4952997;29;20093;-76
2021/10/28 18:12:18;;;;;;;9.75;4.72;;;13.00;99.90;;;;;;4932656;29;20032;-76
2021/10/28 18:14:44;;;;;;;10.38;3.28;;;12.90;99.90;;;;;;4946393;29;20060;-77
2021/10/28 18:17:11;;;;;;;6.03;3.47;;;12.90;99.90;;;;;;4942484;29;20040;-77
2021/10/28 18:19:38;;;;;;;12.77;4.20;;;12.90;99.90;;;;;;4944474;29;20031;-77
2021/10/28 18:22:06;;;;;;;8.00;3.15;;;12.80;99.90;;;;;;4970645;28;20043;-75
2021/10/28 18:24:32;;;;;;;9.18;3.30;;;12.80;99.90;;;;;;4950161;29;20055;-75
2021/10/28 18:26:59;;;;;;;6.30;3.05;;;12.70;99.90;;;;;;4941685;29;20032;-75
2021/10/28 18:29:25;;;;;;;4.32;2.70;;;12.60;99.90;;;;;;4934478;29;20488;-74
2021/10/28 18:31:50;;;;;;;9.13;4.15;;;12.60;99.90;;;;;;4941309;29;20043;-76
2021/10/28 18:34:17;;;;;;;8.32;4.20;;;12.60;99.90;;;;;;4930169;29;20036;-74
2021/10/28 18:36:44;;;;;;;8.88;4.13;;;12.50;99.90;;;;;;4930179;29;20042;-74
2021/10/28 18:39:14;;;;;;;8.02;3.72;;;12.50;99.90;;;;;;4946395;29;20051;-75
2021/10/28 18:41:41;;;;;;;13.95;5.65;;;12.50;99.90;;;;;;4952557;29;20024;-74
2021/10/28 18:44:07;;;;;;;7.97;3.95;;;12.50;99.90;;;;;;4944616;29;20047;-73
2021/10/28 18:46:34;;;;;;;12.50;4.15;;;12.40;99.90;;;;;;4929860;29;20040;-74
2021/10/28 18:49:03;;;;;;;4.43;2.70;;;12.40;99.90;;;;;;4947047;29;20033;-75
2021/10/28 18:51:30;;;;;;;9.73;3.03;;;12.40;99.90;;;;;;4946294;29;20039;-74
2021/10/28 18:53:56;;;;;;;7.35;3.25;;;12.30;99.90;;;;;;4946006;29;20036;-73
2021/10/28 18:56:22;;;;;;;10.68;3.67;;;12.30;99.90;;;;;;4947203;29;20043;-74
2021/10/28 18:58:48;;;;;;;10.23;5.13;;;12.30;99.90;;;;;;4939859;29;20030;-74
2021/10/28 19:01:16;;;;;;;14.90;7.75;;;12.30;99.90;;;;;;4962797;29;20068;-73
2021/10/28 19:03:44;;;;;;;24.92;10.68;;;12.20;99.90;;;;;;4947083;29;20110;-74
2021/10/28 19:06:12;;;;;;;9.40;4.50;;;12.20;99.90;;;;;;4961323;28;20027;-74
2021/10/28 19:08:40;;;;;;;4.90;3.15;;;12.10;99.90;;;;;;4947949;29;20055;-75
2021/10/28 19:11:08;;;;;;;5.82;2.45;;;12.10;99.90;;;;;;4947967;29;20032;-74
2021/10/28 19:13:35;;;;;;;3.70;2.42;;;12.00;99.90;;;;;;4962581;28;20126;-75
2021/10/28 19:16:01;;;;;;;5.78;2.78;;;12.00;99.90;;;;;;4947794;29;20045;-75
2021/10/28 19:18:27;;;;;;;4.18;2.53;;;11.90;99.90;;;;;;4946705;29;20035;-73
2021/10/28 19:20:52;;;;;;;13.05;3.13;;;11.90;99.90;;;;;;4962257;29;20027;-74
2021/10/28 19:23:18;;;;;;;10.55;3.90;;;11.80;99.90;;;;;;4947127;29;20051;-75
2021/10/28 19:25:44;;;;;;;12.63;5.00;;;11.80;99.90;;;;;;4962613;28;20034;-75
2021/10/28 19:28:10;;;;;;;7.75;3.38;;;11.80;99.90;;;;;;4962191;29;20495;-75
2021/10/28 19:33:14;;;;;;;7.03;3.65;;;11.80;99.90;;;;;;4945272;29;20031;-75
2021/10/28 19:35:44;;;;;;;9.98;4.15;;;11.80;99.90;;;;;;4928972;29;20484;-74
2021/10/28 19:38:21;;;;;;;9.15;3.83;;;11.70;99.90;;;;;;4928020;29;20024;-73
2021/10/28 19:46:26;;;;;;;6.40;3.13;;;11.60;99.90;;;;;;4928552;29;19962;-74
2021/10/28 19:48:52;;;;;;;6.57;3.38;;;11.70;99.90;;;;;;4937590;29;20480;-73
2021/10/28 19:51:18;;;;;;;10.25;3.45;;;11.70;99.90;;;;;;4947220;29;20442;-73
2021/10/28 19:53:46;;;;;;;6.68;2.88;;;11.60;99.90;;;;;;4961910;29;20106;-73
2021/10/28 19:56:16;;;;;;;12.05;4.65;;;11.60;99.90;;;;;;4947059;29;20381;-74
2021/10/28 19:58:48;;;;;;;17.85;4.82;;;11.60;99.90;;;;;;4945435;29;20369;-74
2021/10/28 20:22:08;;;;;;;6.60;2.63;;;11.30;99.90;;;;;;4955331;29;20062;-74
2021/10/28 20:24:34;;;;;;;8.60;3.25;;;11.30;99.90;;;;;;4956095;29;20031;-73
2021/10/28 20:27:00;;;;;;;5.30;2.65;;;11.20;99.90;;;;;;4964509;28;20031;-75
2021/10/28 20:29:26;;;;;;;6.35;3.00;;;11.20;99.90;;;;;;4955176;29;20476;-75
2021/10/28 20:31:52;;;;;;;6.50;2.28;;;11.20;99.90;;;;;;4953440;29;20027;-75
2021/10/28 20:37:21;;;;;;;7.57;3.30;;;11.10;99.90;;;;;;4896870;29;20363;-74
2021/10/28 20:39:47;;;;;;;7.07;2.72;;;11.10;99.90;;;;;;4896646;29;20029;-74
2021/10/28 20:42:17;;;;;;;4.97;2.45;;;11.10;99.90;;;;;;4923805;29;20468;-73
2021/10/28 20:44:46;;;;;;;4.20;2.70;;;11.10;99.90;;;;;;4951730;29;20020;-74
2021/10/28 20:47:13;;;;;;;6.78;3.38;;;11.10;99.90;;;;;;4957540;28;20028;-74
2021/10/28 20:49:39;;;;;;;5.90;2.80;;;11.00;99.90;;;;;;4954823;28;20028;-75
2021/10/28 20:52:08;;;;;;;11.18;3.28;;;11.00;99.90;;;;;;4955054;28;20028;-75
2021/10/28 20:54:38;;;;;;;6.47;3.47;;;11.00;99.90;;;;;;4955599;28;20019;-77
2021/10/28 20:57:13;;;;;;;5.75;3.05;;;11.00;99.90;;;;;;4956418;29;20044;-77
2021/10/28 20:59:39;;;;;;;10.98;3.95;;;10.90;99.90;;;;;;4955138;28;20356;-75
2021/10/28 21:02:07;;;;;;;7.28;3.13;;;10.90;99.90;;;;;;4953498;29;20041;-75
2021/10/28 21:04:37;;;;;;;5.65;2.70;;;10.90;99.90;;;;;;4955726;29;20027;-75
2021/10/28 21:07:03;;;;;;;5.07;2.92;;;10.90;99.90;;;;;;4960502;29;20110;-74
2021/10/28 21:09:29;;;;;;;6.05;3.10;;;10.90;99.90;;;;;;4955369;28;20554;-74
2021/10/28 21:11:55;;;;;;;8.52;3.42;;;10.80;99.90;;;;;;4956880;29;20055;-73
2021/10/28 21:14:21;;;;;;;7.75;3.17;;;10.80;99.90;;;;;;4951074;29;20019;-73
2021/10/28 21:16:47;;;;;;;11.93;3.92;;;10.80;99.90;;;;;;4955241;29;20051;-75
2021/10/28 21:19:12;;;;;;;8.25;3.50;;;10.80;99.90;;;;;;4948847;28;20032;-74
2021/10/28 21:21:39;;;;;;;5.10;2.92;;;10.70;99.90;;;;;;4927261;29;20084;-75
2021/10/28 21:24:07;;;;;;;7.47;3.00;;;10.70;99.90;;;;;;4934109;29;20023;-75
2021/10/28 21:26:37;;;;;;;12.77;3.17;;;10.70;99.90;;;;;;4946393;29;20439;-74
2021/10/28 21:29:03;;;;;;;9.85;3.83;;;10.60;99.90;;;;;;4944914;29;20028;-75
2021/10/28 21:31:30;;;;;;;6.43;3.45;;;10.60;99.90;;;;;;4946794;29;20038;-75
2021/10/28 21:33:56;;;;;;;8.07;3.65;;;10.60;99.90;;;;;;4947103;29;20471;-75
2021/10/28 21:36:22;;;;;;;9.25;4.25;;;10.50;99.90;;;;;;4946169;29;20103;-75
2021/10/28 21:38:49;;;;;;;5.70;2.97;;;10.50;99.90;;;;;;4945711;29;20126;-74
2021/10/28 21:41:14;;;;;;;6.07;3.22;;;10.40;99.90;;;;;;4946290;29;20051;-74
2021/10/28 21:43:40;;;;;;;6.18;3.33;;;10.40;99.90;;;;;;4944058;29;20028;-74
2021/10/28 21:46:07;;;;;;;12.20;3.63;;;10.30;99.90;;;;;;4945426;29;20056;-74
2021/10/28 21:48:33;;;;;;;13.10;3.97;;;10.30;99.90;;;;;;4947920;29;20052;-75
2021/10/28 21:51:02;;;;;;;5.90;3.30;;;10.30;99.90;;;;;;4949768;29;20038;-74
2021/10/28 21:53:33;;;;;;;9.50;4.07;;;10.20;99.90;;;;;;4949169;29;20031;-75
2021/10/28 21:56:16;;;;;;;6.13;3.63;;;10.20;99.90;;;;;;4950065;29;20517;-75
2021/10/28 22:01:43;;;;;;;7.03;3.88;;;10.20;99.90;;;;;;4958560;29;20036;-76
2021/10/28 22:25:34;;;;;;;8.25;4.10;;;9.90;99.90;;;;;;4949006;29;20043;-76